sensor_id;sensor_type;location;lat;lon;timestamp;P1;durP1;ratioP1;P2;durP2;ratioP2
76608;SDS011;65928;53.936;27.540;2024-02-28T00:01:01;12.77;;;8.70;;
76608;SDS011;65928;53.936;27.540;2024-02-28T00:03:26;12.32;;;7.15;;
76608;SDS011;65928;53.936;27.540;2024-02-28T00:05:52;13.02;;;8.40;;
76608;SDS011;65928;53.936;27.540;2024-02-28T00:08:17;12.88;;;8.85;;
76608;SDS011;65928;53.936;27.540;2024-02-28T00:10:45;13.43;;;8.15;;
76608;SDS011;65928;53.936;27.540;2024-02-28T00:13:10;12.00;;;7.75;;
76608;SDS011;65928;53.936;27.540;2024-02-28T00:15:35;12.40;;;8.20;;
76608;SDS011;65928;53.936;27.540;2024-02-28T00:18:01;14.20;;;8.80;;
76608;SDS011;65928;53.936;27.540;2024-02-28T00:20:26;13.18;;;8.38;;
76608;SDS011;65928;53.936;27.540;2024-02-28T00:22:53;14.80;;;8.23;;
76608;SDS011;65928;53.936;27.540;2024-02-28T00:25:18;15.20;;;8.20;;
76608;SDS011;65928;53.936;27.540;2024-02-28T00:27:44;13.40;;;8.57;;
76608;SDS011;65928;53.936;27.540;2024-02-28T00:30:09;10.43;;;8.35;;
76608;SDS011;65928;53.936;27.540;2024-02-28T00:32:35;13.80;;;7.90;;
76608;SDS011;65928;53.936;27.540;2024-02-28T00:35:00;13.27;;;8.10;;
76608;SDS011;65928;53.936;27.540;2024-02-28T00:37:26;14.07;;;8.20;;
76608;SDS011;65928;53.936;27.540;2024-02-28T00:39:51;15.10;;;8.77;;
76608;SDS011;65928;53.936;27.540;2024-02-28T00:42:17;12.30;;;8.25;;
76608;SDS011;65928;53.936;27.540;2024-02-28T00:44:42;14.00;;;8.57;;
76608;SDS011;65928;53.936;27.540;2024-02-28T00:47:08;15.00;;;8.82;;
76608;SDS011;65928;53.936;27.540;2024-02-28T00:49:34;12.65;;;7.60;;
76608;SDS011;65928;53.936;27.540;2024-02-28T00:52:00;13.38;;;8.93;;
76608;SDS011;65928;53.936;27.540;2024-02-28T00:54:25;13.15;;;8.73;;
76608;SDS011;65928;53.936;27.540;2024-02-28T00:56:51;13.60;;;8.55;;
76608;SDS011;65928;53.936;27.540;2024-02-28T00:59:16;14.38;;;8.35;;
76608;SDS011;65928;53.936;27.540;2024-02-28T01:01:41;12.88;;;7.95;;
76608;SDS011;65928;53.936;27.540;2024-02-28T01:04:07;13.43;;;9.68;;
76608;SDS011;65928;53.936;27.540;2024-02-28T01:06:32;12.00;;;8.73;;
76608;SDS011;65928;53.936;27.540;2024-02-28T01:08:58;12.02;;;8.50;;
76608;SDS011;65928;53.936;27.540;2024-02-28T01:11:24;16.23;;;9.10;;
76608;SDS011;65928;53.936;27.540;2024-02-28T01:13:49;14.98;;;8.82;;
76608;SDS011;65928;53.936;27.540;2024-02-28T01:16:15;14.07;;;8.82;;
76608;SDS011;65928;53.936;27.540;2024-02-28T01:18:41;14.07;;;9.10;;
76608;SDS011;65928;53.936;27.540;2024-02-28T01:21:07;16.27;;;9.63;;
76608;SDS011;65928;53.936;27.540;2024-02-28T01:23:32;14.35;;;8.32;;
76608;SDS011;65928;53.936;27.540;2024-02-28T01:25:57;15.30;;;9.75;;
76608;SDS011;65928;53.936;27.540;2024-02-28T01:28:23;13.50;;;9.10;;
76608;SDS011;65928;53.936;27.540;2024-02-28T01:30:48;15.82;;;9.43;;
76608;SDS011;65928;53.936;27.540;2024-02-28T01:33:14;14.10;;;8.90;;
76608;SDS011;65928;53.936;27.540;2024-02-28T01:35:39;12.90;;;9.35;;
76608;SDS011;65928;53.936;27.540;2024-02-28T01:38:05;15.07;;;9.55;;
76608;SDS011;65928;53.936;27.540;2024-02-28T01:40:30;11.93;;;9.38;;
76608;SDS011;65928;53.936;27.540;2024-02-28T01:43:01;16.50;;;10.75;;
76608;SDS011;65928;53.936;27.540;2024-02-28T01:45:36;14.73;;;10.38;;
76608;SDS011;65928;53.936;27.540;2024-02-28T01:48:02;14.85;;;9.88;;
76608;SDS011;65928;53.936;27.540;2024-02-28T01:50:27;15.57;;;10.18;;
76608;SDS011;65928;53.936;27.540;2024-02-28T01:52:53;13.35;;;10.38;;
76608;SDS011;65928;53.936;27.540;2024-02-28T01:55:18;14.70;;;9.32;;
76608;SDS011;65928;53.936;27.540;2024-02-28T01:57:43;15.05;;;10.32;;
76608;SDS011;65928;53.936;27.540;2024-02-28T02:00:09;12.82;;;8.82;;
76608;SDS011;65928;53.936;27.540;2024-02-28T02:02:36;13.02;;;9.45;;
76608;SDS011;65928;53.936;27.540;2024-02-28T02:05:02;16.08;;;9.02;;
76608;SDS011;65928;53.936;27.540;2024-02-28T02:07:27;15.23;;;9.57;;
76608;SDS011;65928;53.936;27.540;2024-02-28T02:09:53;18.63;;;9.95;;
76608;SDS011;65928;53.936;27.540;2024-02-28T02:12:19;18.33;;;10.35;;
76608;SDS011;65928;53.936;27.540;2024-02-28T02:14:48;12.43;;;9.70;;
76608;SDS011;65928;53.936;27.540;2024-02-28T02:17:13;15.23;;;9.45;;
76608;SDS011;65928;53.936;27.540;2024-02-28T02:19:39;15.80;;;8.77;;
76608;SDS011;65928;53.936;27.540;2024-02-28T02:22:05;12.45;;;8.25;;
76608;SDS011;65928;53.936;27.540;2024-02-28T02:24:30;15.35;;;9.70;;
76608;SDS011;65928;53.936;27.540;2024-02-28T02:26:59;16.50;;;9.30;;
76608;SDS011;65928;53.936;27.540;2024-02-28T02:29:24;13.27;;;9.23;;
76608;SDS011;65928;53.936;27.540;2024-02-28T02:31:50;14.50;;;9.27;;
76608;SDS011;65928;53.936;27.540;2024-02-28T02:34:15;17.60;;;9.95;;
76608;SDS011;65928;53.936;27.540;2024-02-28T02:36:40;15.68;;;9.35;;
76608;SDS011;65928;53.936;27.540;2024-02-28T02:39:06;18.05;;;9.30;;
76608;SDS011;65928;53.936;27.540;2024-02-28T02:41:33;15.07;;;9.82;;
76608;SDS011;65928;53.936;27.540;2024-02-28T02:43:58;12.85;;;8.65;;
76608;SDS011;65928;53.936;27.540;2024-02-28T02:46:24;16.50;;;9.75;;
76608;SDS011;65928;53.936;27.540;2024-02-28T02:48:49;16.42;;;9.48;;
76608;SDS011;65928;53.936;27.540;2024-02-28T02:51:14;13.10;;;8.63;;
76608;SDS011;65928;53.936;27.540;2024-02-28T02:53:41;14.25;;;10.13;;
76608;SDS011;65928;53.936;27.540;2024-02-28T02:56:07;14.48;;;10.10;;
76608;SDS011;65928;53.936;27.540;2024-02-28T02:58:32;15.35;;;9.55;;
76608;SDS011;65928;53.936;27.540;2024-02-28T03:00:58;13.23;;;9.10;;
76608;SDS011;65928;53.936;27.540;2024-02-28T03:03:23;14.27;;;9.50;;
76608;SDS011;65928;53.936;27.540;2024-02-28T03:05:48;14.48;;;8.57;;
76608;SDS011;65928;53.936;27.540;2024-02-28T03:08:14;15.75;;;9.40;;
76608;SDS011;65928;53.936;27.540;2024-02-28T03:10:40;16.95;;;9.60;;
76608;SDS011;65928;53.936;27.540;2024-02-28T03:13:05;15.00;;;9.55;;
76608;SDS011;65928;53.936;27.540;2024-02-28T03:15:32;16.65;;;10.18;;
76608;SDS011;65928;53.936;27.540;2024-02-28T03:17:57;14.35;;;9.70;;
76608;SDS011;65928;53.936;27.540;2024-02-28T03:20:23;15.35;;;10.05;;
76608;SDS011;65928;53.936;27.540;2024-02-28T03:22:49;18.02;;;10.32;;
76608;SDS011;65928;53.936;27.540;2024-02-28T03:25:14;14.65;;;9.63;;
76608;SDS011;65928;53.936;27.540;2024-02-28T03:27:40;19.55;;;10.82;;
76608;SDS011;65928;53.936;27.540;2024-02-28T03:30:05;19.02;;;9.68;;
76608;SDS011;65928;53.936;27.540;2024-02-28T03:32:31;12.65;;;9.02;;
76608;SDS011;65928;53.936;27.540;2024-02-28T03:34:57;15.27;;;9.32;;
76608;SDS011;65928;53.936;27.540;2024-02-28T03:37:22;13.63;;;9.75;;
76608;SDS011;65928;53.936;27.540;2024-02-28T03:39:48;19.33;;;9.48;;
76608;SDS011;65928;53.936;27.540;2024-02-28T03:42:13;16.42;;;10.32;;
76608;SDS011;65928;53.936;27.540;2024-02-28T03:44:38;16.58;;;9.65;;
76608;SDS011;65928;53.936;27.540;2024-02-28T03:47:04;22.52;;;10.32;;
76608;SDS011;65928;53.936;27.540;2024-02-28T03:49:29;17.55;;;9.73;;
76608;SDS011;65928;53.936;27.540;2024-02-28T03:51:54;22.45;;;10.05;;
76608;SDS011;65928;53.936;27.540;2024-02-28T03:54:20;19.02;;;9.75;;
76608;SDS011;65928;53.936;27.540;2024-02-28T03:56:45;16.60;;;9.77;;
76608;SDS011;65928;53.936;27.540;2024-02-28T03:59:10;15.80;;;8.98;;
76608;SDS011;65928;53.936;27.540;2024-02-28T04:01:36;15.52;;;9.63;;
76608;SDS011;65928;53.936;27.540;2024-02-28T04:04:01;14.88;;;9.35;;
76608;SDS011;65928;53.936;27.540;2024-02-28T04:06:27;15.48;;;8.27;;
76608;SDS011;65928;53.936;27.540;2024-02-28T04:08:52;15.48;;;9.85;;
76608;SDS011;65928;53.936;27.540;2024-02-28T04:11:18;15.02;;;10.02;;
76608;SDS011;65928;53.936;27.540;2024-02-28T04:13:43;21.15;;;10.82;;
76608;SDS011;65928;53.936;27.540;2024-02-28T04:16:09;14.95;;;9.80;;
76608;SDS011;65928;53.936;27.540;2024-02-28T04:18:35;15.05;;;9.93;;
76608;SDS011;65928;53.936;27.540;2024-02-28T04:21:00;13.85;;;9.63;;
76608;SDS011;65928;53.936;27.540;2024-02-28T04:23:25;15.43;;;10.50;;
76608;SDS011;65928;53.936;27.540;2024-02-28T04:25:51;18.80;;;9.98;;
76608;SDS011;65928;53.936;27.540;2024-02-28T04:28:16;17.20;;;9.73;;
76608;SDS011;65928;53.936;27.540;2024-02-28T04:30:41;16.40;;;10.80;;
76608;SDS011;65928;53.936;27.540;2024-02-28T04:33:07;17.17;;;9.63;;
76608;SDS011;65928;53.936;27.540;2024-02-28T04:35:33;18.48;;;10.38;;
76608;SDS011;65928;53.936;27.540;2024-02-28T04:37:58;21.90;;;11.05;;
76608;SDS011;65928;53.936;27.540;2024-02-28T04:40:24;17.70;;;10.52;;
76608;SDS011;65928;53.936;27.540;2024-02-28T04:42:49;18.08;;;10.77;;
76608;SDS011;65928;53.936;27.540;2024-02-28T04:45:15;16.40;;;10.43;;
76608;SDS011;65928;53.936;27.540;2024-02-28T04:47:40;16.70;;;10.85;;
76608;SDS011;65928;53.936;27.540;2024-02-28T04:50:06;15.15;;;9.23;;
76608;SDS011;65928;53.936;27.540;2024-02-28T04:52:32;16.40;;;10.38;;
76608;SDS011;65928;53.936;27.540;2024-02-28T04:54:57;20.48;;;10.30;;
76608;SDS011;65928;53.936;27.540;2024-02-28T04:57:23;34.97;;;11.70;;
76608;SDS011;65928;53.936;27.540;2024-02-28T04:59:48;16.77;;;9.60;;
76608;SDS011;65928;53.936;27.540;2024-02-28T05:02:14;17.52;;;10.27;;
76608;SDS011;65928;53.936;27.540;2024-02-28T05:04:39;19.95;;;9.93;;
76608;SDS011;65928;53.936;27.540;2024-02-28T05:07:05;23.85;;;11.48;;
76608;SDS011;65928;53.936;27.540;2024-02-28T05:09:32;16.50;;;10.27;;
76608;SDS011;65928;53.936;27.540;2024-02-28T05:11:58;14.38;;;10.13;;
76608;SDS011;65928;53.936;27.540;2024-02-28T05:14:24;22.63;;;10.57;;
76608;SDS011;65928;53.936;27.540;2024-02-28T05:16:49;18.65;;;10.40;;
76608;SDS011;65928;53.936;27.540;2024-02-28T05:19:15;15.65;;;10.18;;
76608;SDS011;65928;53.936;27.540;2024-02-28T05:21:43;14.05;;;9.98;;
76608;SDS011;65928;53.936;27.540;2024-02-28T05:24:09;17.10;;;10.32;;
76608;SDS011;65928;53.936;27.540;2024-02-28T05:26:35;16.05;;;10.50;;
76608;SDS011;65928;53.936;27.540;2024-02-28T05:29:00;14.55;;;10.32;;
76608;SDS011;65928;53.936;27.540;2024-02-28T05:31:26;21.90;;;10.70;;
76608;SDS011;65928;53.936;27.540;2024-02-28T05:33:52;21.73;;;10.65;;
76608;SDS011;65928;53.936;27.540;2024-02-28T05:36:22;16.10;;;9.85;;
76608;SDS011;65928;53.936;27.540;2024-02-28T05:38:48;17.08;;;10.82;;
76608;SDS011;65928;53.936;27.540;2024-02-28T05:41:14;17.70;;;10.15;;
76608;SDS011;65928;53.936;27.540;2024-02-28T05:43:41;15.07;;;10.15;;
76608;SDS011;65928;53.936;27.540;2024-02-28T05:46:06;20.02;;;11.00;;
76608;SDS011;65928;53.936;27.540;2024-02-28T05:48:32;15.40;;;10.88;;
76608;SDS011;65928;53.936;27.540;2024-02-28T05:50:57;14.52;;;10.60;;
76608;SDS011;65928;53.936;27.540;2024-02-28T05:53:22;19.30;;;10.40;;
76608;SDS011;65928;53.936;27.540;2024-02-28T05:55:51;12.52;;;8.65;;
76608;SDS011;65928;53.936;27.540;2024-02-28T05:58:18;19.15;;;10.93;;
76608;SDS011;65928;53.936;27.540;2024-02-28T06:00:44;14.43;;;9.65;;
76608;SDS011;65928;53.936;27.540;2024-02-28T06:03:09;19.70;;;10.57;;
76608;SDS011;65928;53.936;27.540;2024-02-28T06:05:35;19.60;;;10.82;;
76608;SDS011;65928;53.936;27.540;2024-02-28T06:08:00;21.27;;;13.70;;
76608;SDS011;65928;53.936;27.540;2024-02-28T06:10:25;23.20;;;10.77;;
76608;SDS011;65928;53.936;27.540;2024-02-28T06:12:51;15.65;;;10.40;;
76608;SDS011;65928;53.936;27.540;2024-02-28T06:15:16;17.65;;;10.43;;
76608;SDS011;65928;53.936;27.540;2024-02-28T06:17:42;15.90;;;9.85;;
76608;SDS011;65928;53.936;27.540;2024-02-28T06:20:07;17.25;;;9.82;;
76608;SDS011;65928;53.936;27.540;2024-02-28T06:22:33;16.10;;;9.45;;
76608;SDS011;65928;53.936;27.540;2024-02-28T06:24:58;15.30;;;9.80;;
76608;SDS011;65928;53.936;27.540;2024-02-28T06:27:23;15.23;;;9.68;;
76608;SDS011;65928;53.936;27.540;2024-02-28T06:29:49;17.73;;;10.10;;
76608;SDS011;65928;53.936;27.540;2024-02-28T06:32:14;16.83;;;9.60;;
76608;SDS011;65928;53.936;27.540;2024-02-28T06:34:40;17.30;;;9.70;;
76608;SDS011;65928;53.936;27.540;2024-02-28T06:37:06;20.90;;;10.73;;
76608;SDS011;65928;53.936;27.540;2024-02-28T06:39:32;18.80;;;10.95;;
76608;SDS011;65928;53.936;27.540;2024-02-28T06:41:57;23.80;;;11.15;;
76608;SDS011;65928;53.936;27.540;2024-02-28T06:44:23;18.05;;;10.65;;
76608;SDS011;65928;53.936;27.540;2024-02-28T06:46:48;14.23;;;10.48;;
76608;SDS011;65928;53.936;27.540;2024-02-28T06:49:13;17.23;;;10.45;;
76608;SDS011;65928;53.936;27.540;2024-02-28T06:51:39;15.98;;;10.43;;
76608;SDS011;65928;53.936;27.540;2024-02-28T06:54:04;17.25;;;10.95;;
76608;SDS011;65928;53.936;27.540;2024-02-28T06:56:30;20.90;;;11.18;;
76608;SDS011;65928;53.936;27.540;2024-02-28T06:58:55;19.70;;;10.07;;
76608;SDS011;65928;53.936;27.540;2024-02-28T07:01:21;20.08;;;10.35;;
76608;SDS011;65928;53.936;27.540;2024-02-28T07:03:46;17.23;;;9.93;;
76608;SDS011;65928;53.936;27.540;2024-02-28T07:06:12;17.60;;;9.82;;
76608;SDS011;65928;53.936;27.540;2024-02-28T07:08:37;19.05;;;10.63;;
76608;SDS011;65928;53.936;27.540;2024-02-28T07:11:03;16.10;;;10.32;;
76608;SDS011;65928;53.936;27.540;2024-02-28T07:13:28;19.08;;;10.93;;
76608;SDS011;65928;53.936;27.540;2024-02-28T07:15:54;20.67;;;10.65;;
76608;SDS011;65928;53.936;27.540;2024-02-28T07:18:19;19.50;;;10.50;;
76608;SDS011;65928;53.936;27.540;2024-02-28T07:20:45;16.10;;;10.60;;
76608;SDS011;65928;53.936;27.540;2024-02-28T07:23:11;20.95;;;10.45;;
76608;SDS011;65928;53.936;27.540;2024-02-28T07:25:36;21.00;;;11.05;;
76608;SDS011;65928;53.936;27.540;2024-02-28T07:28:02;22.60;;;10.80;;
76608;SDS011;65928;53.936;27.540;2024-02-28T07:30:27;17.25;;;11.70;;
76608;SDS011;65928;53.936;27.540;2024-02-28T07:32:53;15.68;;;10.52;;
76608;SDS011;65928;53.936;27.540;2024-02-28T07:35:19;24.60;;;10.90;;
76608;SDS011;65928;53.936;27.540;2024-02-28T07:37:45;21.90;;;11.38;;
76608;SDS011;65928;53.936;27.540;2024-02-28T07:40:11;19.77;;;11.77;;
76608;SDS011;65928;53.936;27.540;2024-02-28T07:42:37;19.42;;;10.93;;
76608;SDS011;65928;53.936;27.540;2024-02-28T07:45:02;19.40;;;11.20;;
76608;SDS011;65928;53.936;27.540;2024-02-28T07:47:27;15.88;;;11.10;;
76608;SDS011;65928;53.936;27.540;2024-02-28T07:49:53;19.67;;;11.27;;
76608;SDS011;65928;53.936;27.540;2024-02-28T07:52:19;19.60;;;12.27;;
76608;SDS011;65928;53.936;27.540;2024-02-28T07:54:44;18.98;;;11.63;;
76608;SDS011;65928;53.936;27.540;2024-02-28T07:57:10;21.70;;;11.45;;
76608;SDS011;65928;53.936;27.540;2024-02-28T07:59:39;18.05;;;11.88;;
76608;SDS011;65928;53.936;27.540;2024-02-28T08:02:07;21.70;;;11.85;;
76608;SDS011;65928;53.936;27.540;2024-02-28T08:04:33;15.95;;;10.70;;
76608;SDS011;65928;53.936;27.540;2024-02-28T08:06:59;19.73;;;12.93;;
76608;SDS011;65928;53.936;27.540;2024-02-28T08:09:24;19.75;;;11.60;;
76608;SDS011;65928;53.936;27.540;2024-02-28T08:11:50;23.33;;;12.35;;
76608;SDS011;65928;53.936;27.540;2024-02-28T08:14:15;19.50;;;12.40;;
76608;SDS011;65928;53.936;27.540;2024-02-28T08:16:40;30.35;;;13.73;;
76608;SDS011;65928;53.936;27.540;2024-02-28T08:19:06;21.45;;;11.68;;
76608;SDS011;65928;53.936;27.540;2024-02-28T08:21:31;21.38;;;10.70;;
76608;SDS011;65928;53.936;27.540;2024-02-28T08:23:56;20.15;;;12.10;;
76608;SDS011;65928;53.936;27.540;2024-02-28T08:26:23;18.58;;;11.57;;
76608;SDS011;65928;53.936;27.540;2024-02-28T08:28:48;19.35;;;11.43;;
76608;SDS011;65928;53.936;27.540;2024-02-28T08:31:14;17.40;;;10.13;;
76608;SDS011;65928;53.936;27.540;2024-02-28T08:33:40;15.70;;;11.15;;
76608;SDS011;65928;53.936;27.540;2024-02-28T08:36:06;19.25;;;12.20;;
76608;SDS011;65928;53.936;27.540;2024-02-28T08:38:31;16.63;;;11.38;;
76608;SDS011;65928;53.936;27.540;2024-02-28T08:40:57;21.58;;;12.50;;
76608;SDS011;65928;53.936;27.540;2024-02-28T08:43:22;22.15;;;12.00;;
76608;SDS011;65928;53.936;27.540;2024-02-28T08:45:47;20.83;;;11.07;;
76608;SDS011;65928;53.936;27.540;2024-02-28T08:48:15;16.27;;;10.82;;
76608;SDS011;65928;53.936;27.540;2024-02-28T08:50:40;23.98;;;12.20;;
76608;SDS011;65928;53.936;27.540;2024-02-28T08:53:05;15.77;;;10.15;;
76608;SDS011;65928;53.936;27.540;2024-02-28T08:55:31;20.75;;;11.75;;
76608;SDS011;65928;53.936;27.540;2024-02-28T08:57:56;15.23;;;10.10;;
76608;SDS011;65928;53.936;27.540;2024-02-28T09:00:21;21.35;;;10.68;;
76608;SDS011;65928;53.936;27.540;2024-02-28T09:02:47;19.50;;;10.88;;
76608;SDS011;65928;53.936;27.540;2024-02-28T09:05:12;18.45;;;9.77;;
76608;SDS011;65928;53.936;27.540;2024-02-28T09:07:38;21.70;;;12.10;;
76608;SDS011;65928;53.936;27.540;2024-02-28T09:10:03;39.30;;;12.50;;
76608;SDS011;65928;53.936;27.540;2024-02-28T09:12:30;17.67;;;9.95;;
76608;SDS011;65928;53.936;27.540;2024-02-28T09:14:55;19.83;;;11.38;;
76608;SDS011;65928;53.936;27.540;2024-02-28T09:17:22;15.93;;;10.15;;
76608;SDS011;65928;53.936;27.540;2024-02-28T09:19:48;19.77;;;10.82;;
76608;SDS011;65928;53.936;27.540;2024-02-28T09:22:13;18.30;;;11.48;;
76608;SDS011;65928;53.936;27.540;2024-02-28T09:24:40;15.35;;;9.88;;
76608;SDS011;65928;53.936;27.540;2024-02-28T09:27:05;16.05;;;9.90;;
76608;SDS011;65928;53.936;27.540;2024-02-28T09:29:31;21.58;;;11.13;;
76608;SDS011;65928;53.936;27.540;2024-02-28T09:31:56;20.23;;;11.07;;
76608;SDS011;65928;53.936;27.540;2024-02-28T09:34:22;18.80;;;10.30;;
76608;SDS011;65928;53.936;27.540;2024-02-28T09:36:47;17.83;;;11.02;;
76608;SDS011;65928;53.936;27.540;2024-02-28T09:39:13;18.23;;;10.50;;
76608;SDS011;65928;53.936;27.540;2024-02-28T09:41:40;17.33;;;10.82;;
76608;SDS011;65928;53.936;27.540;2024-02-28T09:44:06;23.52;;;11.13;;
76608;SDS011;65928;53.936;27.540;2024-02-28T09:46:32;16.25;;;11.00;;
76608;SDS011;65928;53.936;27.540;2024-02-28T09:48:59;20.88;;;12.05;;
76608;SDS011;65928;53.936;27.540;2024-02-28T09:51:26;18.38;;;10.93;;
76608;SDS011;65928;53.936;27.540;2024-02-28T09:53:52;16.52;;;10.48;;
76608;SDS011;65928;53.936;27.540;2024-02-28T09:56:18;19.33;;;10.82;;
76608;SDS011;65928;53.936;27.540;2024-02-28T09:58:44;18.58;;;10.68;;
76608;SDS011;65928;53.936;27.540;2024-02-28T10:01:10;19.75;;;11.27;;
76608;SDS011;65928;53.936;27.540;2024-02-28T10:03:36;17.83;;;10.45;;
76608;SDS011;65928;53.936;27.540;2024-02-28T10:06:03;16.33;;;10.20;;
76608;SDS011;65928;53.936;27.540;2024-02-28T10:08:28;20.15;;;10.68;;
76608;SDS011;65928;53.936;27.540;2024-02-28T10:10:56;19.48;;;10.63;;
76608;SDS011;65928;53.936;27.540;2024-02-28T10:13:23;19.10;;;10.57;;
76608;SDS011;65928;53.936;27.540;2024-02-28T10:15:49;19.45;;;10.93;;
76608;SDS011;65928;53.936;27.540;2024-02-28T10:18:14;19.70;;;9.95;;
76608;SDS011;65928;53.936;27.540;2024-02-28T10:20:39;15.63;;;10.10;;
76608;SDS011;65928;53.936;27.540;2024-02-28T10:23:08;17.25;;;9.38;;
76608;SDS011;65928;53.936;27.540;2024-02-28T10:25:45;16.30;;;10.32;;
76608;SDS011;65928;53.936;27.540;2024-02-28T10:28:11;17.35;;;10.30;;
76608;SDS011;65928;53.936;27.540;2024-02-28T10:30:39;18.27;;;9.75;;
76608;SDS011;65928;53.936;27.540;2024-02-28T10:33:14;17.25;;;10.02;;
76608;SDS011;65928;53.936;27.540;2024-02-28T10:35:40;18.40;;;11.32;;
76608;SDS011;65928;53.936;27.540;2024-02-28T10:38:07;21.63;;;11.43;;
76608;SDS011;65928;53.936;27.540;2024-02-28T10:40:41;14.60;;;11.00;;
76608;SDS011;65928;53.936;27.540;2024-02-28T10:43:10;18.88;;;11.63;;
76608;SDS011;65928;53.936;27.540;2024-02-28T10:45:36;19.73;;;12.02;;
76608;SDS011;65928;53.936;27.540;2024-02-28T10:48:05;16.70;;;11.43;;
76608;SDS011;65928;53.936;27.540;2024-02-28T10:50:32;19.60;;;11.13;;
76608;SDS011;65928;53.936;27.540;2024-02-28T10:53:01;16.67;;;10.88;;
76608;SDS011;65928;53.936;27.540;2024-02-28T10:55:31;22.40;;;11.45;;
76608;SDS011;65928;53.936;27.540;2024-02-28T10:58:03;22.38;;;11.32;;
76608;SDS011;65928;53.936;27.540;2024-02-28T11:00:32;18.45;;;10.68;;
76608;SDS011;65928;53.936;27.540;2024-02-28T11:02:59;19.92;;;11.45;;
76608;SDS011;65928;53.936;27.540;2024-02-28T11:05:35;23.85;;;10.73;;
76608;SDS011;65928;53.936;27.540;2024-02-28T11:08:01;21.15;;;10.43;;
76608;SDS011;65928;53.936;27.540;2024-02-28T11:10:30;16.08;;;10.82;;
76608;SDS011;65928;53.936;27.540;2024-02-28T11:12:57;18.45;;;10.23;;
76608;SDS011;65928;53.936;27.540;2024-02-28T11:15:24;32.17;;;12.75;;
76608;SDS011;65928;53.936;27.540;2024-02-28T11:17:50;16.95;;;10.18;;
76608;SDS011;65928;53.936;27.540;2024-02-28T11:20:15;14.73;;;10.60;;
76608;SDS011;65928;53.936;27.540;2024-02-28T11:22:41;18.83;;;10.73;;
76608;SDS011;65928;53.936;27.540;2024-02-28T11:25:06;23.10;;;10.57;;
76608;SDS011;65928;53.936;27.540;2024-02-28T11:27:32;17.40;;;10.40;;
76608;SDS011;65928;53.936;27.540;2024-02-28T11:29:57;16.95;;;10.90;;
76608;SDS011;65928;53.936;27.540;2024-02-28T11:32:25;22.10;;;11.30;;
76608;SDS011;65928;53.936;27.540;2024-02-28T11:34:51;15.65;;;10.80;;
76608;SDS011;65928;53.936;27.540;2024-02-28T11:37:17;17.25;;;11.32;;
76608;SDS011;65928;53.936;27.540;2024-02-28T11:39:46;19.77;;;11.88;;
76608;SDS011;65928;53.936;27.540;2024-02-28T11:42:15;16.58;;;10.07;;
76608;SDS011;65928;53.936;27.540;2024-02-28T11:44:41;18.23;;;10.52;;
76608;SDS011;65928;53.936;27.540;2024-02-28T11:47:10;15.68;;;9.18;;
76608;SDS011;65928;53.936;27.540;2024-02-28T11:49:36;18.38;;;10.52;;
76608;SDS011;65928;53.936;27.540;2024-02-28T11:52:04;16.08;;;10.23;;
76608;SDS011;65928;53.936;27.540;2024-02-28T11:54:30;17.75;;;10.40;;
76608;SDS011;65928;53.936;27.540;2024-02-28T11:56:55;15.73;;;10.30;;
76608;SDS011;65928;53.936;27.540;2024-02-28T11:59:20;17.45;;;9.63;;
76608;SDS011;65928;53.936;27.540;2024-02-28T12:01:46;21.35;;;10.52;;
76608;SDS011;65928;53.936;27.540;2024-02-28T12:04:15;15.57;;;10.60;;
76608;SDS011;65928;53.936;27.540;2024-02-28T12:06:41;17.25;;;10.13;;
76608;SDS011;65928;53.936;27.540;2024-02-28T12:09:07;18.10;;;10.52;;
76608;SDS011;65928;53.936;27.540;2024-02-28T12:11:34;25.50;;;9.95;;
76608;SDS011;65928;53.936;27.540;2024-02-28T12:13:59;19.60;;;9.88;;
76608;SDS011;65928;53.936;27.540;2024-02-28T12:16:28;16.90;;;10.05;;
76608;SDS011;65928;53.936;27.540;2024-02-28T12:18:55;17.17;;;9.23;;
76608;SDS011;65928;53.936;27.540;2024-02-28T12:21:20;20.27;;;10.00;;
76608;SDS011;65928;53.936;27.540;2024-02-28T12:23:46;15.98;;;8.98;;
76608;SDS011;65928;53.936;27.540;2024-02-28T12:26:13;16.58;;;9.70;;
76608;SDS011;65928;53.936;27.540;2024-02-28T12:28:39;16.67;;;9.27;;
76608;SDS011;65928;53.936;27.540;2024-02-28T12:31:04;17.15;;;8.88;;
76608;SDS011;65928;53.936;27.540;2024-02-28T12:33:33;16.73;;;8.95;;
76608;SDS011;65928;53.936;27.540;2024-02-28T12:35:59;16.25;;;8.80;;
76608;SDS011;65928;53.936;27.540;2024-02-28T12:38:28;23.05;;;9.50;;
76608;SDS011;65928;53.936;27.540;2024-02-28T12:40:53;12.70;;;8.75;;
76608;SDS011;65928;53.936;27.540;2024-02-28T12:43:19;15.40;;;9.00;;
76608;SDS011;65928;53.936;27.540;2024-02-28T12:45:44;17.35;;;8.55;;
76608;SDS011;65928;53.936;27.540;2024-02-28T12:48:10;15.35;;;8.85;;
76608;SDS011;65928;53.936;27.540;2024-02-28T12:50:35;30.60;;;9.75;;
76608;SDS011;65928;53.936;27.540;2024-02-28T12:53:00;15.15;;;9.18;;
76608;SDS011;65928;53.936;27.540;2024-02-28T12:55:26;20.08;;;8.55;;
76608;SDS011;65928;53.936;27.540;2024-02-28T12:57:51;17.83;;;9.27;;
76608;SDS011;65928;53.936;27.540;2024-02-28T13:00:17;17.60;;;9.10;;
76608;SDS011;65928;53.936;27.540;2024-02-28T13:02:43;19.70;;;9.30;;
76608;SDS011;65928;53.936;27.540;2024-02-28T13:05:09;14.63;;;8.85;;
76608;SDS011;65928;53.936;27.540;2024-02-28T13:07:36;13.50;;;8.60;;
76608;SDS011;65928;53.936;27.540;2024-02-28T13:10:01;12.45;;;8.05;;
76608;SDS011;65928;53.936;27.540;2024-02-28T13:12:29;14.48;;;8.80;;
76608;SDS011;65928;53.936;27.540;2024-02-28T13:14:55;16.35;;;9.30;;
76608;SDS011;65928;53.936;27.540;2024-02-28T13:17:21;15.48;;;9.10;;
76608;SDS011;65928;53.936;27.540;2024-02-28T13:19:47;13.80;;;8.23;;
76608;SDS011;65928;53.936;27.540;2024-02-28T13:22:12;18.02;;;9.10;;
76608;SDS011;65928;53.936;27.540;2024-02-28T13:24:37;14.63;;;8.73;;
76608;SDS011;65928;53.936;27.540;2024-02-28T13:27:03;17.58;;;9.52;;
76608;SDS011;65928;53.936;27.540;2024-02-28T13:29:29;12.75;;;8.82;;
76608;SDS011;65928;53.936;27.540;2024-02-28T13:31:56;14.65;;;8.85;;
76608;SDS011;65928;53.936;27.540;2024-02-28T13:34:21;14.15;;;9.32;;
76608;SDS011;65928;53.936;27.540;2024-02-28T13:36:47;15.80;;;9.35;;
76608;SDS011;65928;53.936;27.540;2024-02-28T13:39:13;18.13;;;9.15;;
76608;SDS011;65928;53.936;27.540;2024-02-28T13:41:41;20.55;;;9.38;;
76608;SDS011;65928;53.936;27.540;2024-02-28T13:44:07;15.25;;;8.88;;
76608;SDS011;65928;53.936;27.540;2024-02-28T13:46:34;16.27;;;9.60;;
76608;SDS011;65928;53.936;27.540;2024-02-28T13:49:01;11.70;;;9.05;;
76608;SDS011;65928;53.936;27.540;2024-02-28T13:51:28;15.60;;;8.70;;
76608;SDS011;65928;53.936;27.540;2024-02-28T13:53:54;14.77;;;8.15;;
76608;SDS011;65928;53.936;27.540;2024-02-28T13:56:20;14.18;;;9.27;;
76608;SDS011;65928;53.936;27.540;2024-02-28T13:58:46;13.52;;;8.60;;
76608;SDS011;65928;53.936;27.540;2024-02-28T14:01:12;13.15;;;9.20;;
76608;SDS011;65928;53.936;27.540;2024-02-28T14:03:37;17.13;;;9.63;;
76608;SDS011;65928;53.936;27.540;2024-02-28T14:06:03;21.17;;;9.10;;
76608;SDS011;65928;53.936;27.540;2024-02-28T14:08:29;16.30;;;8.80;;